Time;durP1;ratioP1;P1;durP2;ratioP2;P2;SDS_P1;SDS_P2;PMS_P1;PMS_P2;Temp;Humidity;BMP_temperature;BMP_pressure;BME280_temperature;BME280_humidity;BME280_pressure;Samples;Min_cycle;Max_cycle;Signal;HPM_P1;HPM_P2
2021/07/14 00:00:06;;;;;;;;;;;14.90;99.90;;;13.97;100.00;95273.44;10335908;28;2294;-79
2021/07/14 00:05:09;;;;;;;;;;;14.90;99.90;;;13.91;100.00;95265.75;10337473;28;2343;-78
2021/07/14 00:10:12;;;;;;;;;;;14.90;99.90;;;13.92;100.00;95229.50;10343428;28;2343;-78
2021/07/14 00:25:56;;;;;;;;;;;14.90;99.90;;;13.79;100.00;95198.75;10329849;28;2380;-79
2021/07/14 00:31:01;;;;;;;;;;;14.80;99.90;;;13.73;100.00;95221.59;10330841;28;2387;-78
2021/07/14 00:36:04;;;;;;;;;;;14.80;99.90;;;13.89;100.00;95224.75;10334571;28;2280;-78
2021/07/14 00:41:07;;;;;;;;;;;14.80;99.90;;;13.79;100.00;95214.97;10348844;28;2299;-77
2021/07/14 00:46:10;;;;;;;;;;;14.80;99.90;;;13.81;100.00;95239.78;10335387;28;2249;-78
2021/07/14 00:51:12;;;;;;;;;;;14.80;99.90;;;13.91;100.00;95253.03;10330598;28;2284;-79
2021/07/14 00:56:15;;;;;;;;;;;14.90;99.90;;;13.93;100.00;95272.47;10337063;28;2382;-78
2021/07/14 01:01:18;;;;;;;;;;;14.90;99.90;;;14.07;100.00;95267.00;10328350;28;2443;-79
2021/07/14 01:06:20;;;;;;;;;;;15.00;99.90;;;14.11;100.00;95264.44;10333020;28;3000;-78
2021/07/14 01:11:23;;;;;;;;;;;15.10;99.90;;;14.12;100.00;95271.44;10333936;28;2556;-78
2021/07/14 01:16:26;;;;;;;;;;;15.10;99.90;;;14.10;100.00;95258.25;10326892;28;2406;-79
2021/07/14 01:21:29;;;;;;;;;;;15.10;99.90;;;14.19;100.00;95278.03;10337341;28;2457;-79
2021/07/14 01:26:32;;;;;;;;;;;15.10;99.90;;;14.23;100.00;95281.72;10327400;28;2496;-79
2021/07/14 01:31:34;;;;;;;;;;;15.20;99.90;;;14.23;100.00;95294.44;10339403;28;2640;-79
2021/07/14 01:36:37;;;;;;;;;;;15.20;99.90;;;14.30;100.00;95260.44;10339726;28;2334;-79
2021/07/14 01:41:40;;;;;;;;;;;15.20;99.90;;;14.21;100.00;95250.69;10326966;28;2519;-79
2021/07/14 01:46:43;;;;;;;;;;;15.20;99.90;;;14.25;100.00;95233.56;10335998;28;2564;-79
2021/07/14 01:51:45;;;;;;;;;;;15.20;99.90;;;14.07;100.00;95208.34;10331318;28;2497;-79
2021/07/14 01:56:48;;;;;;;;;;;15.20;99.90;;;13.98;100.00;95190.44;10331575;28;2619;-78
2021/07/14 02:01:52;;;;;;;;;;;15.10;99.90;;;14.13;100.00;95194.69;10332670;28;2496;-79
2021/07/14 02:06:55;;;;;;;;;;;14.90;99.90;;;14.21;100.00;95204.75;10331044;28;2505;-79
2021/07/14 02:11:58;;;;;;;;;;;15.10;99.90;;;14.32;100.00;95200.69;10330794;28;2509;-78
2021/07/14 02:17:00;;;;;;;;;;;15.10;99.90;;;14.29;100.00;95185.84;10358165;28;2700;-81
2021/07/14 02:22:03;;;;;;;;;;;15.30;99.90;;;14.11;100.00;95183.38;10363730;28;2360;-79
2021/07/14 02:27:06;;;;;;;;;;;15.20;99.90;;;13.71;100.00;95176.00;10372715;28;2117;-81
2021/07/14 02:32:09;;;;;;;;;;;15.00;99.90;;;13.82;100.00;95202.75;10373906;28;2679;-79
2021/07/14 02:37:12;;;;;;;;;;;14.90;99.90;;;13.98;100.00;95202.06;10345676;28;2398;-80
2021/07/14 02:42:14;;;;;;;;;;;14.90;99.90;;;14.12;100.00;95207.38;10324480;28;2533;-79
2021/07/14 02:47:17;;;;;;;;;;;14.90;99.90;;;13.99;100.00;95211.75;10337195;28;2470;-79
2021/07/14 02:52:23;;;;;;;;;;;15.00;99.90;;;13.90;100.00;95221.72;10335782;28;2508;-78
2021/07/14 02:57:26;;;;;;;;;;;15.00;99.90;;;13.88;100.00;95217.75;10328899;28;2545;-78
2021/07/14 03:02:29;;;;;;;;;;;14.90;99.90;;;13.92;100.00;95230.31;10328727;28;2553;-79
2021/07/14 03:07:31;;;;;;;;;;;14.80;99.90;;;14.00;100.00;95232.28;10326595;28;2647;-78
2021/07/14 03:12:34;;;;;;;;;;;14.90;99.90;;;13.98;100.00;95204.75;10332502;28;2473;-79
2021/07/14 03:17:37;;;;;;;;;;;14.90;99.90;;;13.91;100.00;95207.09;10332349;28;2536;-80
2021/07/14 03:22:40;;;;;;;;;;;14.90;99.90;;;14.04;100.00;95216.25;10337508;28;2477;-79
2021/07/14 03:27:42;;;;;;;;;;;14.90;99.90;;;13.91;100.00;95223.31;10340248;28;2556;-79
2021/07/14 03:32:45;;;;;;;;;;;14.90;99.90;;;13.91;100.00;95234.13;10326011;28;2599;-81
2021/07/14 03:37:49;;;;;;;;;;;14.90;99.90;;;13.88;100.00;95229.34;10330321;28;2284;-77
2021/07/14 03:42:52;;;;;;;;;;;14.90;99.90;;;13.76;100.00;95237.19;10324319;28;2662;-78
2021/07/14 03:47:54;;;;;;;;;;;14.80;99.90;;;13.91;100.00;95249.53;10325115;28;2480;-77
2021/07/14 03:52:57;;;;;;;;;;;14.80;99.90;;;14.00;100.00;95258.53;10329577;28;1989;-78
2021/07/14 03:58:00;;;;;;;;;;;14.90;99.90;;;13.88;100.00;95256.38;10336815;28;2473;-80
2021/07/14 04:03:03;;;;;;;;;;;14.80;99.90;;;13.81;100.00;95261.41;10338313;28;2695;-78
2021/07/14 04:08:05;;;;;;;;;;;14.80;99.90;;;13.83;100.00;95275.38;10339440;28;2457;-76
2021/07/14 04:13:08;;;;;;;;;;;14.80;99.90;;;13.86;100.00;95263.97;10331789;28;1947;-77
2021/07/14 04:18:30;;;;;;;;;;;14.80;99.90;;;13.93;100.00;95267.06;10329038;28;2509;-78
2021/07/14 04:23:53;;;;;;;;;;;14.90;99.90;;;13.99;100.00;95263.09;10322826;28;2481;-79
2021/07/14 04:29:16;;;;;;;;;;;14.80;99.90;;;13.93;100.00;95256.25;10327354;28;2521;-78
2021/07/14 04:34:38;;;;;;;;;;;14.90;99.90;;;14.01;100.00;95260.91;10328533;28;2445;-78
2021/07/14 04:40:01;;;;;;;;;;;14.90;99.90;;;14.11;100.00;95240.13;10323072;28;2458;-79
2021/07/14 04:45:13;;;;;;;;;;;14.90;99.90;;;14.12;98.34;95236.31;10343540;28;2502;-78
2021/07/14 04:50:36;;;;;;;;;;;15.00;99.90;;;14.21;97.67;95231.78;10328021;28;2528;-78
2021/07/14 04:55:59;;;;;;;;;;;15.00;99.90;;;14.34;97.37;95215.47;10327267;28;2604;-77
2021/07/14 05:01:02;;;;;;;;;;;15.10;99.90;;;14.32;95.06;95211.50;10332516;28;2575;-77
2021/07/14 05:06:04;;;;;;;;;;;15.10;99.90;;;14.30;94.37;95208.28;10333375;28;2917;-78
2021/07/14 05:11:07;;;;;;;;;;;15.10;99.90;;;14.36;94.05;95198.94;10334230;28;2538;-80
2021/07/14 05:16:10;;;;;;;;;;;15.20;99.90;;;14.28;95.61;95192.38;10363462;28;2403;-80
2021/07/14 05:21:12;;;;;;;;;;;15.10;99.90;;;14.41;92.44;95187.19;10338240;28;2638;-78
2021/07/14 05:26:16;;;;;;;;;;;15.20;99.90;;;14.24;90.65;95198.69;10331957;28;2468;-77
2021/07/14 05:31:19;;;;;;;;;;;15.20;99.90;;;15.03;90.99;95187.88;10335585;28;2446;-80
2021/07/14 05:36:22;;;;;;;;;;;15.50;99.90;;;15.03;84.50;95198.72;10337913;28;2509;-78
2021/07/14 05:41:24;;;;;;;;;;;15.80;99.90;;;15.08;88.13;95219.44;10330935;28;1978;-80
2021/07/14 05:46:27;;;;;;;;;;;15.80;99.90;;;15.02;86.28;95220.69;10340454;28;2528;-79
2021/07/14 05:51:30;;;;;;;;;;;15.90;99.90;;;15.32;86.14;95221.69;10348300;28;2543;-79
2021/07/14 05:56:32;;;;;;;;;;;15.90;99.90;;;16.07;83.66;95231.28;10350160;28;2528;-80
2021/07/14 06:01:37;;;;;;;;;;;16.40;99.90;;;16.07;80.75;95231.28;10356112;28;2524;-82
2021/07/14 06:06:40;;;;;;;;;;;16.70;99.90;;;16.04;78.79;95237.34;10353217;28;2545;-79
2021/07/14 06:11:42;;;;;;;;;;;16.70;99.90;;;15.46;83.28;95243.19;10350121;28;2415;-79
2021/07/14 06:16:45;;;;;;;;;;;16.40;99.90;;;15.09;85.31;95245.38;10339711;28;2547;-79
2021/07/14 06:21:48;;;;;;;;;;;16.00;99.90;;;14.85;87.25;95254.69;10348842;28;2266;-78
2021/07/14 06:26:55;;;;;;;;;;;15.80;99.90;;;14.83;87.19;95253.41;10324441;28;2505;-79
2021/07/14 06:31:58;;;;;;;;;;;15.70;99.90;;;15.18;86.21;95242.69;10342814;28;2400;-78
2021/07/14 06:37:01;;;;;;;;;;;15.90;99.90;;;15.38;86.93;95248.28;10319591;28;2343;-79
2021/07/14 06:42:03;;;;;;;;;;;16.00;99.90;;;15.71;83.87;95237.03;10324790;28;2713;-79
2021/07/14 06:47:06;;;;;;;;;;;16.30;99.90;;;15.79;83.12;95233.53;10337178;28;2257;-79
2021/07/14 06:52:09;;;;;;;;;;;16.40;99.90;;;16.02;82.26;95250.41;10328235;28;2471;-80
2021/07/14 06:57:14;;;;;;;;;;;16.60;99.90;;;15.81;84.30;95266.53;10316305;28;2727;-79
2021/07/14 07:02:17;;;;;;;;;;;16.60;99.90;;;15.86;83.63;95276.41;10326483;28;2305;-80
2021/07/14 07:07:19;;;;;;;;;;;16.70;99.90;;;16.11;82.68;95275.63;10323845;28;2400;-79
2021/07/14 07:12:22;;;;;;;;;;;16.70;99.90;;;15.96;83.59;95267.94;10318440;28;2414;-80
2021/07/14 07:17:25;;;;;;;;;;;16.80;99.90;;;16.14;81.90;95272.25;10320048;28;2371;-80
2021/07/14 07:22:28;;;;;;;;;;;16.90;99.90;;;16.46;79.33;95276.34;10317587;28;2399;-79
2021/07/14 07:27:35;;;;;;;;;;;17.10;99.90;;;17.01;77.16;95269.34;10319412;28;2345;-78
2021/07/14 07:32:37;;;;;;;;;;;17.40;99.90;;;17.42;76.34;95267.81;10322493;28;2264;-79
2021/07/14 07:37:40;;;;;;;;;;;17.80;99.90;;;17.66;73.95;95269.91;10331372;28;2318;-79
2021/07/14 07:42:43;;;;;;;;;;;18.00;99.90;;;17.72;73.54;95277.56;10318376;28;2337;-80
2021/07/14 07:47:46;;;;;;;;;;;18.30;99.90;;;17.85;73.48;95281.16;10327946;28;2405;-79
2021/07/14 07:52:48;;;;;;;;;;;18.50;99.90;;;18.12;73.49;95279.00;10335094;28;2420;-79
2021/07/14 07:57:51;;;;;;;;;;;18.80;99.90;;;18.59;68.71;95282.25;10322308;28;2538;-78
2021/07/14 08:02:56;;;;;;;;;;;19.10;99.90;;;18.27;70.37;95281.94;10320893;28;2577;-77
2021/07/14 08:07:58;;;;;;;;;;;19.00;99.90;;;18.60;69.38;95287.34;10327105;28;2371;-80
2021/07/14 08:13:02;;;;;;;;;;;18.90;99.90;;;18.41;68.30;95286.28;10338795;28;2582;-79
2021/07/14 08:18:04;;;;;;;;;;;18.90;99.90;;;18.58;68.55;95272.50;10336411;28;2304;-77
2021/07/14 08:23:07;;;;;;;;;;;19.00;99.90;;;18.57;66.18;95279.06;10344946;28;2467;-79
2021/07/14 08:28:12;;;;;;;;;;;19.30;99.90;;;18.37;69.23;95292.38;10324661;28;2246;-79
2021/07/14 08:33:14;;;;;;;;;;;19.20;99.90;;;18.38;69.56;95287.72;10352467;28;2371;-81
2021/07/14 08:38:17;;;;;;;;;;;19.00;99.90;;;18.75;67.07;95296.84;10354507;28;2337;-80
2021/07/14 08:43:20;;;;;;;;;;;19.10;99.90;;;18.44;69.32;95302.72;10327270;28;2325;-79
2021/07/14 08:48:22;;;;;;;;;;;19.10;99.90;;;18.55;68.88;95306.63;10321767;28;2380;-80
2021/07/14 08:53:25;;;;;;;;;;;19.10;99.90;;;18.72;67.98;95305.69;10332442;28;2348;-79
2021/07/14 08:58:28;;;;;;;;;;;19.20;99.90;;;19.31;64.14;95301.78;10329991;28;2396;-79
2021/07/14 09:03:31;;;;;;;;;;;19.70;99.90;;;19.72;63.46;95300.75;10329127;28;2427;-79
2021/07/14 09:08:33;;;;;;;;;;;20.00;99.90;;;19.98;61.47;95312.09;10320865;28;2371;-78
2021/07/14 09:13:36;;;;;;;;;;;20.30;99.90;;;19.85;63.00;95318.72;10321863;28;2384;-79
2021/07/14 09:18:39;;;;;;;;;;;20.40;99.90;;;20.64;61.17;95324.50;10325180;28;2385;-80
2021/07/14 09:23:44;;;;;;;;;;;20.70;99.90;;;21.34;57.34;95321.28;10337386;28;2360;-78
2021/07/14 09:28:46;;;;;;;;;;;21.20;99.90;;;21.39;55.66;95320.22;10338504;28;2369;-78
2021/07/14 09:33:50;;;;;;;;;;;21.90;99.90;;;22.41;53.11;95323.72;10324301;28;2494;-78
2021/07/14 09:38:53;;;;;;;;;;;22.50;99.90;;;22.47;52.16;95319.53;10320958;28;2332;-80
2021/07/14 09:43:56;;;;;;;;;;;22.90;99.90;;;21.84;54.07;95322.47;10323063;28;2384;-79
2021/07/14 09:48:59;;;;;;;;;;;22.50;99.90;;;20.77;57.53;95314.31;10321385;28;2363;-78
2021/07/14 09:54:03;;;;;;;;;;;22.00;99.90;;;20.29;59.41;95316.06;10317330;28;2380;-79
2021/07/14 09:59:06;;;;;;;;;;;21.40;99.90;;;19.45;63.08;95330.28;10309227;28;2391;-78
2021/07/14 10:04:08;;;;;;;;;;;20.70;99.90;;;19.25;64.67;95324.94;10316184;28;2350;-78
2021/07/14 10:09:29;;;;;;;;;;;20.30;99.90;;;18.95;65.78;95325.13;10325772;28;2335;-78
2021/07/14 10:14:31;;;;;;;;;;;20.10;99.90;;;19.32;64.51;95320.50;10323182;28;2480;-78
2021/07/14 10:19:34;;;;;;;;;;;20.10;99.90;;;19.28;63.93;95314.19;10326190;28;2335;-77
2021/07/14 10:24:37;;;;;;;;;;;20.10;99.90;;;19.85;61.27;95310.53;10328419;28;2415;-76
2021/07/14 10:29:40;;;;;;;;;;;20.30;99.90;;;20.33;59.67;95318.91;10326137;28;2484;-77
2021/07/14 10:34:42;;;;;;;;;;;20.60;99.90;;;20.14;59.73;95314.88;10319440;28;2404;-77
2021/07/14 10:39:48;;;;;;;;;;;20.70;99.90;;;20.35;59.43;95314.69;10321616;28;2300;-77
2021/07/14 10:44:50;;;;;;;;;;;20.80;99.90;;;19.93;62.11;95327.91;10319393;28;2748;-77
2021/07/14 10:49:53;;;;;;;;;;;20.80;99.90;;;19.34;63.45;95317.44;10324776;28;2270;-77
2021/07/14 10:54:56;;;;;;;;;;;20.40;99.90;;;19.16;65.72;95322.34;10326757;28;2282;-76
2021/07/14 10:59:59;;;;;;;;;;;20.00;99.90;;;19.11;65.46;95336.97;10322993;28;2339;-77
2021/07/14 11:05:02;;;;;;;;;;;20.00;99.90;;;19.22;63.96;95331.09;10319911;28;2386;-77
2021/07/14 11:10:04;;;;;;;;;;;20.00;99.90;;;19.25;64.17;95331.19;10324765;28;2384;-77
2021/07/14 11:15:09;;;;;;;;;;;19.90;99.90;;;19.84;61.06;95319.84;10328842;28;2311;-77
2021/07/14 11:20:12;;;;;;;;;;;20.20;99.90;;;20.61;59.31;95327.13;10323306;28;2361;-77
2021/07/14 11:25:20;;;;;;;;;;;20.70;99.90;;;20.67;58.33;95329.25;10329103;28;2526;-78
2021/07/14 11:30:22;;;;;;;;;;;21.00;99.90;;;21.39;57.03;95336.63;10324175;28;2297;-78
2021/07/14 11:35:26;;;;;;;;;;;21.40;99.90;;;21.64;55.40;95326.28;10327713;28;2324;-78
2021/07/14 11:40:28;;;;;;;;;;;21.90;99.90;;;21.90;54.95;95323.75;10316731;28;2530;-78
2021/07/14 11:45:31;;;;;;;;;;;22.20;99.90;;;21.68;55.59;95306.06;10347569;28;2458;-77
2021/07/14 11:50:34;;;;;;;;;;;22.40;99.90;;;22.12;55.39;95309.41;10329626;28;2263;-77
2021/07/14 11:55:39;;;;;;;;;;;22.50;99.90;;;22.19;54.29;95333.41;10328755;28;2339;-77
2021/07/14 12:00:41;;;;;;;;;;;22.70;99.90;;;21.47;56.13;95338.38;10331048;28;2317;-78
2021/07/14 12:05:44;;;;;;;;;;;22.50;99.90;;;20.94;58.88;95354.19;10310797;28;2444;-77
2021/07/14 12:10:47;;;;;;;;;;;22.00;99.90;;;20.51;58.78;95353.00;10322249;28;2387;-77
2021/07/14 12:15:50;;;;;;;;;;;21.50;99.90;;;20.21;57.77;95349.78;10328122;28;2292;-77
2021/07/14 12:20:52;;;;;;;;;;;21.20;99.90;;;19.86;61.25;95349.50;10331821;28;2304;-76
2021/07/14 12:25:57;;;;;;;;;;;20.80;99.90;;;20.26;59.66;95355.00;10319346;28;2415;-77
2021/07/14 12:31:00;;;;;;;;;;;20.80;99.90;;;20.12;60.65;95358.09;10318304;28;2253;-76
2021/07/14 12:36:03;;;;;;;;;;;20.80;99.90;;;19.83;61.04;95356.44;10323681;28;2257;-79
2021/07/14 12:41:06;;;;;;;;;;;20.80;99.90;;;19.78;61.46;95353.94;10324298;28;2335;-79
2021/07/14 12:46:08;;;;;;;;;;;20.60;99.90;;;19.52;62.76;95361.63;10322524;28;2246;-77
2021/07/14 12:51:11;;;;;;;;;;;20.50;99.90;;;19.19;63.34;95378.88;10316439;28;2451;-78
2021/07/14 12:56:14;;;;;;;;;;;20.20;99.90;;;18.85;63.97;95380.84;10315399;28;2311;-77
2021/07/14 13:01:17;;;;;;;;;;;20.00;99.90;;;18.63;64.71;95387.41;10321110;28;2703;-77
2021/07/14 13:06:20;;;;;;;;;;;19.90;99.90;;;18.60;65.95;95384.56;10327366;28;2691;-79
2021/07/14 13:11:23;;;;;;;;;;;19.70;99.90;;;18.54;68.80;95394.06;10327159;28;2499;-78
2021/07/14 13:16:26;;;;;;;;;;;19.60;99.90;;;18.42;70.51;95396.72;10331305;28;2275;-77
2021/07/14 13:21:29;;;;;;;;;;;19.50;99.90;;;18.40;71.71;95386.19;10336076;28;2328;-80
2021/07/14 13:26:32;;;;;;;;;;;19.40;99.90;;;18.35;71.05;95378.22;10340192;28;2518;-77
2021/07/14 13:31:37;;;;;;;;;;;19.40;99.90;;;18.36;73.13;95375.16;10340335;28;2313;-76
2021/07/14 13:36:41;;;;;;;;;;;19.40;99.90;;;18.11;77.51;95348.94;10337347;28;2430;-77
2021/07/14 13:41:44;;;;;;;;;;;19.20;99.90;;;17.96;81.00;95336.75;10347345;28;2418;-77
2021/07/14 13:46:47;;;;;;;;;;;19.00;99.90;;;17.64;79.28;95330.03;10331643;28;3287;-78
2021/07/14 13:51:51;;;;;;;;;;;18.80;99.90;;;17.37;80.22;95309.59;10331925;28;2797;-78
2021/07/14 13:56:54;;;;;;;;;;;18.50;99.90;;;17.27;81.65;95310.75;10328580;28;2449;-76
2021/07/14 14:01:57;;;;;;;;;;;18.40;99.90;;;17.69;83.96;95318.19;10321976;28;2372;-79
2021/07/14 14:07:01;;;;;;;;;;;18.50;99.90;;;18.19;77.90;95334.47;10324143;28;2428;-78
2021/07/14 14:12:07;;;;;;;;;;;18.70;99.90;;;18.61;76.19;95345.31;10330552;28;2517;-79
2021/07/14 14:17:10;;;;;;;;;;;19.20;99.90;;;19.13;71.37;95336.63;10333752;28;2685;-78
2021/07/14 14:22:14;;;;;;;;;;;19.60;99.90;;;19.47;70.48;95343.59;10330178;28;2462;-77
2021/07/14 14:27:17;;;;;;;;;;;20.00;99.90;;;19.66;69.14;95338.41;10333907;28;2702;-77
2021/07/14 14:32:20;;;;;;;;;;;20.30;99.90;;;20.11;67.60;95334.69;10327482;28;2752;-78
2021/07/14 14:37:22;;;;;;;;;;;20.60;99.90;;;20.73;63.51;95327.06;10329569;28;2693;-76
2021/07/14 14:42:25;;;;;;;;;;;21.10;99.90;;;21.13;59.63;95326.19;10333004;28;2466;-79
2021/07/14 14:47:28;;;;;;;;;;;21.60;99.90;;;21.71;57.43;95329.19;10331277;28;2229;-77
2021/07/14 14:52:30;;;;;;;;;;;22.10;99.90;;;21.65;58.06;95342.34;10328782;28;2240;-76
2021/07/14 14:57:33;;;;;;;;;;;22.30;99.90;;;21.04;60.07;95349.00;10325213;28;2423;-78
2021/07/14 15:02:36;;;;;;;;;;;22.20;99.90;;;20.98;60.50;95361.31;10322525;28;2403;-79
2021/07/14 15:07:38;;;;;;;;;;;22.00;99.90;;;20.77;60.51;95349.81;10320415;28;2317;-77
2021/07/14 15:12:41;;;;;;;;;;;21.90;99.90;;;20.75;61.55;95360.31;10329106;28;2407;-78
2021/07/14 15:17:44;;;;;;;;;;;21.80;99.90;;;20.82;61.23;95354.25;10329957;28;2454;-78
2021/07/14 15:22:47;;;;;;;;;;;21.90;99.90;;;20.76;60.74;95353.72;10328042;28;2459;-78
2021/07/14 15:33:10;;;;;;;;;;;22.00;99.90;;;20.78;59.79;95362.34;10323147;28;2238;-80
2021/07/14 15:38:14;;;;;;;;;;;21.90;99.90;;;21.26;59.45;95360.50;10323626;28;2311;-79
2021/07/14 15:43:19;;;;;;;;;;;21.80;99.90;;;21.79;57.87;95364.56;10331914;28;2490;-79
2021/07/14 15:48:22;;;;;;;;;;;22.50;99.90;;;22.74;53.65;95355.28;10334824;28;2407;-79
2021/07/14 15:53:24;;;;;;;;;;;23.10;99.90;;;23.31;53.06;95356.38;10335727;28;2309;-81
2021/07/14 15:58:27;;;;;;;;;;;23.90;99.90;;;23.19;53.12;95351.84;10317043;28;2689;-79
2021/07/14 16:03:30;;;;;;;;;;;24.10;99.90;;;23.14;52.70;95343.91;10316555;28;2566;-79
2021/07/14 16:08:33;;;;;;;;;;;24.10;99.90;;;22.70;53.92;95348.91;10326935;28;2940;-81
2021/07/14 16:13:36;;;;;;;;;;;23.90;99.90;;;22.52;53.76;95354.84;10317956;28;2428;-80
2021/07/14 16:18:38;;;;;;;;;;;23.70;99.90;;;21.79;55.25;95347.34;10329556;28;2368;-78
2021/07/14 16:23:41;;;;;;;;;;;23.20;99.90;;;21.26;57.58;95363.22;10314791;28;2374;-80
2021/07/14 16:28:44;;;;;;;;;;;22.50;99.90;;;20.43;60.72;95357.44;10328707;28;2328;-80
2021/07/14 16:33:47;;;;;;;;;;;22.00;99.90;;;20.12;62.05;95351.84;10318197;28;2333;-79
2021/07/14 16:38:49;;;;;;;;;;;21.50;99.90;;;20.28;61.98;95347.25;10332447;28;2685;-80
2021/07/14 16:43:52;;;;;;;;;;;21.30;99.90;;;19.85;63.23;95356.06;10332981;28;2348;-77
2021/07/14 16:48:55;;;;;;;;;;;21.10;99.90;;;19.86;62.99;95354.97;10330543;28;2258;-79
2021/07/14 16:53:58;;;;;;;;;;;20.90;99.90;;;19.69;63.38;95356.00;10333320;28;2424;-80
2021/07/14 16:59:01;;;;;;;;;;;20.80;99.90;;;19.84;62.94;95346.31;10329721;28;2671;-80
2021/07/14 17:04:04;;;;;;;;;;;20.80;99.90;;;19.83;63.06;95356.44;10352941;28;2749;-79
2021/07/14 17:09:07;;;;;;;;;;;20.80;99.90;;;19.64;63.86;95348.03;10367608;28;2239;-79
2021/07/14 17:14:09;;;;;;;;;;;20.70;99.90;;;19.38;64.73;95349.13;10361732;28;2554;-79
2021/07/14 17:19:12;;;;;;;;;;;20.50;99.90;;;19.43;65.66;95348.91;10349664;28;2253;-79
2021/07/14 17:24:15;;;;;;;;;;;20.40;99.90;;;19.56;65.22;95351.66;10355795;28;2685;-79
2021/07/14 17:29:17;;;;;;;;;;;20.50;99.90;;;19.61;64.48;95351.47;10363312;28;2221;-80
2021/07/14 17:34:20;;;;;;;;;;;20.50;99.90;;;19.73;64.43;95342.47;10360616;28;2522;-79
2021/07/14 17:39:23;;;;;;;;;;;20.60;99.90;;;19.87;64.19;95340.97;10363167;28;2703;-81
2021/07/14 17:44:26;;;;;;;;;;;20.70;99.90;;;20.25;62.60;95343.28;10354414;28;2313;-81
2021/07/14 17:49:30;;;;;;;;;;;20.90;99.90;;;20.35;60.97;95344.72;10367078;28;2300;-79
2021/07/14 17:54:33;;;;;;;;;;;21.10;99.90;;;20.09;60.47;95344.34;10357103;28;2387;-80
2021/07/14 17:59:36;;;;;;;;;;;21.00;99.90;;;19.84;61.48;95335.41;10350602;28;2329;-80
2021/07/14 18:04:40;;;;;;;;;;;20.80;99.90;;;19.57;59.49;95348.56;10352880;28;2441;-80
2021/07/14 18:09:42;;;;;;;;;;;20.60;99.90;;;19.43;61.93;95351.66;10338398;28;2461;-80
2021/07/14 18:14:45;;;;;;;;;;;20.50;99.90;;;19.07;61.67;95351.59;10338608;28;2449;-79
2021/07/14 18:19:48;;;;;;;;;;;20.20;99.90;;;18.95;61.81;95348.84;10335830;28;2403;-81
2021/07/14 18:24:50;;;;;;;;;;;20.00;99.90;;;18.88;62.49;95347.47;10341270;28;2415;-79
2021/07/14 18:29:53;;;;;;;;;;;19.90;99.90;;;18.65;64.82;95357.13;10333607;28;2470;-80
2021/07/14 18:34:56;;;;;;;;;;;19.80;99.90;;;18.50;65.80;95355.03;10364567;28;2737;-79
2021/07/14 18:39:59;;;;;;;;;;;19.60;99.90;;;18.54;65.14;95343.13;10338663;28;2321;-80
2021/07/14 18:45:02;;;;;;;;;;;19.50;99.90;;;18.27;66.39;95352.66;10350280;28;2257;-79
2021/07/14 18:50:05;;;;;;;;;;;19.50;99.90;;;18.29;67.81;95350.41;10344822;28;2573;-79
2021/07/14 18:55:09;;;;;;;;;;;19.30;99.90;;;18.15;68.59;95349.09;10352307;28;2344;-80
2021/07/14 19:00:12;;;;;;;;;;;19.20;99.90;;;17.96;68.54;95353.06;10350333;28;2352;-82
2021/07/14 19:05:15;;;;;;;;;;;19.10;99.90;;;17.82;69.39;95352.50;10344634;28;2253;-81
2021/07/14 19:10:18;;;;;;;;;;;18.90;99.90;;;17.94;68.97;95359.94;10337402;28;2534;-80
2021/07/14 19:15:20;;;;;;;;;;;18.90;99.90;;;17.79;69.90;95356.66;10342050;28;2610;-80
2021/07/14 19:20:26;;;;;;;;;;;18.90;99.90;;;17.86;69.78;95363.50;10345164;28;2518;-81
2021/07/14 19:25:29;;;;;;;;;;;18.80;99.90;;;17.56;71.27;95369.75;10348466;28;2503;-81
2021/07/14 19:30:32;;;;;;;;;;;18.70;99.90;;;17.78;70.79;95370.59;10348370;28;2497;-80
2021/07/14 19:35:34;;;;;;;;;;;18.70;99.90;;;17.60;70.89;95380.72;10354198;28;2044;-77
2021/07/14 19:40:37;;;;;;;;;;;18.70;99.90;;;17.65;71.28;95386.00;10348717;28;2213;-80
2021/07/14 19:45:40;;;;;;;;;;;18.60;99.90;;;17.51;71.49;95383.50;10349086;28;2391;-81
2021/07/14 19:50:42;;;;;;;;;;;18.50;99.90;;;17.53;71.89;95383.19;10331284;28;2430;-79
2021/07/14 19:55:45;;;;;;;;;;;18.50;99.90;;;17.50;72.01;95389.28;10328683;28;2827;-79
2021/07/14 20:00:48;;;;;;;;;;;18.50;99.90;;;17.44;72.47;95402.25;10332870;28;2649;-80
2021/07/14 20:05:51;;;;;;;;;;;18.40;99.90;;;17.69;71.59;95386.16;10323808;28;2430;-82
2021/07/14 20:10:53;;;;;;;;;;;18.50;99.90;;;17.53;71.67;95388.59;10326520;28;2661;-79
2021/07/14 20:15:56;;;;;;;;;;;18.50;99.90;;;17.78;70.94;95393.16;10331627;28;2245;-78
2021/07/14 20:20:59;;;;;;;;;;;18.60;99.90;;;17.55;71.81;95392.56;10332784;28;2336;-81
2021/07/14 20:26:02;;;;;;;;;;;18.50;99.90;;;17.12;73.18;95390.06;10339810;28;2409;-79
2021/07/14 20:31:05;;;;;;;;;;;18.40;99.90;;;16.96;74.45;95406.06;10337267;28;2404;-78
2021/07/14 20:36:07;;;;;;;;;;;18.10;99.90;;;16.77;75.11;95400.19;10328288;28;2445;-79
2021/07/14 20:41:10;;;;;;;;;;;17.90;99.90;;;16.56;76.45;95400.03;10330645;28;2382;-79
2021/07/14 20:46:13;;;;;;;;;;;17.70;99.90;;;16.39;76.71;95402.72;10321237;28;2713;-78
2021/07/14 20:51:15;;;;;;;;;;;17.60;99.90;;;16.32;78.28;95402.41;10319810;28;2455;-79
2021/07/14 20:56:18;;;;;;;;;;;17.40;99.90;;;16.31;78.10;95400.81;10335511;28;2811;-78
2021/07/14 21:01:21;;;;;;;;;;;17.40;99.90;;;16.32;78.43;95388.84;10320101;28;2505;-77
2021/07/14 21:06:24;;;;;;;;;;;17.40;99.90;;;16.16;78.97;95394.75;10317388;28;2377;-78
2021/07/14 21:11:27;;;;;;;;;;;17.30;99.90;;;16.08;79.45;95389.31;10323332;28;2482;-80
2021/07/14 21:16:30;;;;;;;;;;;17.20;99.90;;;16.09;79.51;95399.84;10336428;28;2355;-80
2021/07/14 21:21:32;;;;;;;;;;;17.20;99.90;;;16.18;79.79;95395.22;10319000;28;2430;-78
2021/07/14 21:26:35;;;;;;;;;;;17.20;99.90;;;16.22;79.24;95389.97;10321256;28;2335;-78
2021/07/14 21:31:40;;;;;;;;;;;17.20;99.90;;;16.27;79.00;95386.28;10323118;28;2283;-78
2021/07/14 21:36:43;;;;;;;;;;;17.20;99.90;;;16.27;77.05;95386.28;10324871;28;2304;-79
2021/07/14 21:41:46;;;;;;;;;;;17.30;99.90;;;16.27;77.27;95387.09;10322540;28;2506;-78
2021/07/14 21:46:49;;;;;;;;;;;17.30;99.90;;;16.33;76.43;95396.66;10330699;28;2317;-77
2021/07/14 21:51:51;;;;;;;;;;;17.30;99.90;;;16.26;76.65;95390.13;10332827;28;2419;-78
2021/07/14 21:56:55;;;;;;;;;;;17.30;99.90;;;16.30;76.79;95396.53;10322857;28;2411;-79
2021/07/14 22:01:57;;;;;;;;;;;17.30;99.90;;;16.18;77.46;95389.81;10320914;28;2348;-79
2021/07/14 22:07:01;;;;;;;;;;;17.20;99.90;;;16.17;76.17;95387.41;10336628;28;2386;-79
2021/07/14 22:12:05;;;;;;;;;;;17.20;99.90;;;16.12;76.97;95390.28;10333583;28;2331;-79
2021/07/14 22:17:09;;;;;;;;;;;17.10;99.90;;;16.13;77.65;95397.31;10328530;28;2265;-78
2021/07/14 22:22:31;;;;;;;;;;;17.10;99.90;;;16.14;77.23;95402.41;10326725;28;2304;-79
2021/07/14 22:27:54;;;;;;;;;;;17.10;99.90;;;16.07;77.55;95404.78;10332541;28;2296;-79
2021/07/14 22:32:57;;;;;;;;;;;17.10;99.90;;;16.04;77.43;95405.44;10329061;28;2320;-80
2021/07/14 22:38:01;;;;;;;;;;;17.10;99.90;;;16.10;77.08;95409.59;10340667;28;2387;-80
2021/07/14 22:43:03;;;;;;;;;;;17.10;99.90;;;16.08;77.60;95400.94;10334542;28;2465;-78
2021/07/14 22:48:06;;;;;;;;;;;17.00;99.90;;;15.95;76.77;95407.31;10321178;28;2262;-79
2021/07/14 22:53:09;;;;;;;;;;;17.00;99.90;;;15.99;76.21;95402.88;10326993;28;2080;-79
2021/07/14 22:58:12;;;;;;;;;;;17.00;99.90;;;15.96;76.63;95398.06;10327929;28;2415;-79
2021/07/14 23:03:15;;;;;;;;;;;16.90;99.90;;;15.82;77.56;95408.25;10356015;28;2332;-80
2021/07/14 23:08:18;;;;;;;;;;;16.90;99.90;;;15.77;76.70;95401.06;10358426;28;2339;-80
2021/07/14 23:13:20;;;;;;;;;;;16.80;99.90;;;15.75;78.23;95397.06;10359297;28;2337;-78
2021/07/14 23:18:23;;;;;;;;;;;16.80;99.90;;;15.56;78.19;95405.44;10339369;28;2399;-79
2021/07/14 23:23:26;;;;;;;;;;;16.70;99.90;;;15.50;78.33;95407.47;10341248;28;2320;-79
2021/07/14 23:28:28;;;;;;;;;;;16.60;99.90;;;15.41;78.75;95402.06;10338778;28;2313;-78